sensor_id;sensor_type;location;lat;lon;timestamp;temperature;humidity
14555;DHT22;7364;50.870;4.722;2022-12-07T00:01:23;6.60;99.90
14555;DHT22;7364;50.870;4.722;2022-12-07T00:03:56;6.70;99.90
14555;DHT22;7364;50.870;4.722;2022-12-07T00:06:29;7.00;99.90
14555;DHT22;7364;50.870;4.722;2022-12-07T00:08:57;6.90;99.90
14555;DHT22;7364;50.870;4.722;2022-12-07T00:11:25;6.90;99.90
14555;DHT22;7364;50.870;4.722;2022-12-07T00:13:53;6.70;99.90
14555;DHT22;7364;50.870;4.722;2022-12-07T00:16:23;6.50;99.90
14555;DHT22;7364;50.870;4.722;2022-12-07T00:18:51;6.30;99.90
14555;DHT22;7364;50.870;4.722;2022-12-07T00:21:22;6.20;99.90
14555;DHT22;7364;50.870;4.722;2022-12-07T00:23:50;6.10;99.90
14555;DHT22;7364;50.870;4.722;2022-12-07T00:26:19;5.90;99.90
14555;DHT22;7364;50.870;4.722;2022-12-07T00:28:47;6.00;99.90
14555;DHT22;7364;50.870;4.722;2022-12-07T00:31:15;5.90;99.90
14555;DHT22;7364;50.870;4.722;2022-12-07T00:33:43;5.80;99.90
14555;DHT22;7364;50.870;4.722;2022-12-07T00:36:13;5.80;99.90
14555;DHT22;7364;50.870;4.722;2022-12-07T00:38:44;5.70;99.90
14555;DHT22;7364;50.870;4.722;2022-12-07T00:41:16;5.70;99.90
14555;DHT22;7364;50.870;4.722;2022-12-07T00:43:44;5.60;99.90
14555;DHT22;7364;50.870;4.722;2022-12-07T00:46:13;5.60;99.90
14555;DHT22;7364;50.870;4.722;2022-12-07T00:48:41;5.50;99.90
14555;DHT22;7364;50.870;4.722;2022-12-07T00:51:10;5.50;99.90
14555;DHT22;7364;50.870;4.722;2022-12-07T00:53:38;5.40;99.90
14555;DHT22;7364;50.870;4.722;2022-12-07T00:56:08;5.50;99.90
14555;DHT22;7364;50.870;4.722;2022-12-07T00:58:35;5.50;99.90
14555;DHT22;7364;50.870;4.722;2022-12-07T01:01:04;5.60;99.90
14555;DHT22;7364;50.870;4.722;2022-12-07T01:03:32;5.50;99.90
14555;DHT22;7364;50.870;4.722;2022-12-07T01:06:00;5.60;99.90
14555;DHT22;7364;50.870;4.722;2022-12-07T01:08:27;5.60;99.90
14555;DHT22;7364;50.870;4.722;2022-12-07T01:10:59;5.50;99.90
14555;DHT22;7364;50.870;4.722;2022-12-07T01:13:28;5.60;99.90
14555;DHT22;7364;50.870;4.722;2022-12-07T01:15:57;5.60;99.90
14555;DHT22;7364;50.870;4.722;2022-12-07T01:18:25;5.70;99.90
14555;DHT22;7364;50.870;4.722;2022-12-07T01:21:01;5.70;99.90
14555;DHT22;7364;50.870;4.722;2022-12-07T01:23:29;5.60;99.90
14555;DHT22;7364;50.870;4.722;2022-12-07T01:25:56;5.70;99.90
14555;DHT22;7364;50.870;4.722;2022-12-07T01:28:24;5.60;99.90
14555;DHT22;7364;50.870;4.722;2022-12-07T01:30:57;5.60;99.90
14555;DHT22;7364;50.870;4.722;2022-12-07T01:33:26;5.50;99.90
14555;DHT22;7364;50.870;4.722;2022-12-07T01:35:54;5.60;99.90
14555;DHT22;7364;50.870;4.722;2022-12-07T01:38:21;5.50;99.90
14555;DHT22;7364;50.870;4.722;2022-12-07T01:40:54;5.50;99.90
14555;DHT22;7364;50.870;4.722;2022-12-07T01:43:23;5.40;99.90
14555;DHT22;7364;50.870;4.722;2022-12-07T01:45:51;5.40;99.90
14555;DHT22;7364;50.870;4.722;2022-12-07T01:48:23;5.40;99.90
14555;DHT22;7364;50.870;4.722;2022-12-07T01:50:53;5.30;99.90
14555;DHT22;7364;50.870;4.722;2022-12-07T01:53:25;5.40;99.90
14555;DHT22;7364;50.870;4.722;2022-12-07T01:55:53;5.40;99.90
14555;DHT22;7364;50.870;4.722;2022-12-07T01:58:22;5.50;99.90
14555;DHT22;7364;50.870;4.722;2022-12-07T02:00:50;5.50;99.90
14555;DHT22;7364;50.870;4.722;2022-12-07T02:03:23;5.60;99.90
14555;DHT22;7364;50.870;4.722;2022-12-07T02:05:53;5.60;99.90
14555;DHT22;7364;50.870;4.722;2022-12-07T02:08:21;5.50;99.90
14555;DHT22;7364;50.870;4.722;2022-12-07T02:10:48;5.40;99.90
14555;DHT22;7364;50.870;4.722;2022-12-07T02:13:18;5.40;99.90
14555;DHT22;7364;50.870;4.722;2022-12-07T02:16:03;5.40;99.90
14555;DHT22;7364;50.870;4.722;2022-12-07T02:18:55;5.50;99.90
14555;DHT22;7364;50.870;4.722;2022-12-07T02:21:35;5.30;99.90
14555;DHT22;7364;50.870;4.722;2022-12-07T02:24:15;5.20;99.90
14555;DHT22;7364;50.870;4.722;2022-12-07T02:27:05;5.30;99.90
14555;DHT22;7364;50.870;4.722;2022-12-07T02:29:40;5.30;99.90
14555;DHT22;7364;50.870;4.722;2022-12-07T02:32:21;5.40;99.90
14555;DHT22;7364;50.870;4.722;2022-12-07T02:34:51;5.40;99.90
14555;DHT22;7364;50.870;4.722;2022-12-07T02:37:33;5.40;99.90
14555;DHT22;7364;50.870;4.722;2022-12-07T02:40:06;5.50;99.90
14555;DHT22;7364;50.870;4.722;2022-12-07T02:42:40;5.30;99.90
14555;DHT22;7364;50.870;4.722;2022-12-07T02:45:10;5.20;99.90
14555;DHT22;7364;50.870;4.722;2022-12-07T02:47:41;5.20;99.90
14555;DHT22;7364;50.870;4.722;2022-12-07T02:50:10;5.20;99.90
14555;DHT22;7364;50.870;4.722;2022-12-07T02:52:38;5.20;99.90
14555;DHT22;7364;50.870;4.722;2022-12-07T02:55:06;5.20;99.90
14555;DHT22;7364;50.870;4.722;2022-12-07T02:57:50;5.30;99.90
14555;DHT22;7364;50.870;4.722;2022-12-07T03:00:21;5.30;99.90
14555;DHT22;7364;50.870;4.722;2022-12-07T03:02:55;5.30;99.90
14555;DHT22;7364;50.870;4.722;2022-12-07T03:05:46;5.30;99.90
14555;DHT22;7364;50.870;4.722;2022-12-07T03:08:23;5.30;99.90
14555;DHT22;7364;50.870;4.722;2022-12-07T03:10:56;5.30;99.90
14555;DHT22;7364;50.870;4.722;2022-12-07T03:13:30;5.30;99.90
14555;DHT22;7364;50.870;4.722;2022-12-07T03:16:04;5.30;99.90
14555;DHT22;7364;50.870;4.722;2022-12-07T03:18:38;5.30;99.90
14555;DHT22;7364;50.870;4.722;2022-12-07T03:21:13;5.40;99.90
14555;DHT22;7364;50.870;4.722;2022-12-07T03:23:43;5.30;99.90
14555;DHT22;7364;50.870;4.722;2022-12-07T03:26:13;5.40;99.90
14555;DHT22;7364;50.870;4.722;2022-12-07T03:28:47;5.50;99.90
14555;DHT22;7364;50.870;4.722;2022-12-07T03:31:21;5.50;99.90
14555;DHT22;7364;50.870;4.722;2022-12-07T03:33:55;5.40;99.90
14555;DHT22;7364;50.870;4.722;2022-12-07T03:36:28;5.40;99.90
14555;DHT22;7364;50.870;4.722;2022-12-07T03:39:01;5.40;99.90
14555;DHT22;7364;50.870;4.722;2022-12-07T03:41:31;5.50;99.90
14555;DHT22;7364;50.870;4.722;2022-12-07T03:44:01;5.50;99.90
14555;DHT22;7364;50.870;4.722;2022-12-07T03:46:36;5.60;99.90
14555;DHT22;7364;50.870;4.722;2022-12-07T03:49:10;5.60;99.90
14555;DHT22;7364;50.870;4.722;2022-12-07T03:51:42;5.60;99.90
14555;DHT22;7364;50.870;4.722;2022-12-07T03:54:16;5.80;99.90
14555;DHT22;7364;50.870;4.722;2022-12-07T03:56:46;6.00;99.90
14555;DHT22;7364;50.870;4.722;2022-12-07T03:59:16;5.90;99.90
14555;DHT22;7364;50.870;4.722;2022-12-07T04:01:44;5.80;99.90
14555;DHT22;7364;50.870;4.722;2022-12-07T04:04:12;5.80;99.90
14555;DHT22;7364;50.870;4.722;2022-12-07T04:06:40;5.70;99.90
14555;DHT22;7364;50.870;4.722;2022-12-07T04:09:07;5.70;99.90
14555;DHT22;7364;50.870;4.722;2022-12-07T04:11:34;5.50;99.90
14555;DHT22;7364;50.870;4.722;2022-12-07T04:14:01;5.50;99.90
14555;DHT22;7364;50.870;4.722;2022-12-07T04:16:46;5.40;99.90
14555;DHT22;7364;50.870;4.722;2022-12-07T04:19:16;5.30;99.90
14555;DHT22;7364;50.870;4.722;2022-12-07T04:21:44;5.30;99.90
14555;DHT22;7364;50.870;4.722;2022-12-07T04:24:12;5.40;99.90
14555;DHT22;7364;50.870;4.722;2022-12-07T04:26:39;5.60;99.90
14555;DHT22;7364;50.870;4.722;2022-12-07T04:29:06;5.80;99.90
14555;DHT22;7364;50.870;4.722;2022-12-07T04:31:34;5.70;99.90
14555;DHT22;7364;50.870;4.722;2022-12-07T04:34:02;5.50;99.90
14555;DHT22;7364;50.870;4.722;2022-12-07T04:36:31;5.30;99.90
14555;DHT22;7364;50.870;4.722;2022-12-07T04:38:59;5.40;99.90
14555;DHT22;7364;50.870;4.722;2022-12-07T04:41:27;5.50;99.90
14555;DHT22;7364;50.870;4.722;2022-12-07T04:43:54;5.70;99.90
14555;DHT22;7364;50.870;4.722;2022-12-07T04:46:22;5.70;99.90
14555;DHT22;7364;50.870;4.722;2022-12-07T04:48:49;5.80;99.90
14555;DHT22;7364;50.870;4.722;2022-12-07T04:51:19;6.00;99.90
14555;DHT22;7364;50.870;4.722;2022-12-07T04:53:48;6.10;99.90
14555;DHT22;7364;50.870;4.722;2022-12-07T04:56:17;6.10;99.90
14555;DHT22;7364;50.870;4.722;2022-12-07T04:58:45;6.00;99.90
14555;DHT22;7364;50.870;4.722;2022-12-07T05:01:13;5.90;99.90
14555;DHT22;7364;50.870;4.722;2022-12-07T05:03:41;6.10;99.90
14555;DHT22;7364;50.870;4.722;2022-12-07T05:06:10;6.00;99.90
14555;DHT22;7364;50.870;4.722;2022-12-07T05:08:38;6.00;99.90
14555;DHT22;7364;50.870;4.722;2022-12-07T05:11:07;6.10;99.90
14555;DHT22;7364;50.870;4.722;2022-12-07T05:13:36;6.00;99.90
14555;DHT22;7364;50.870;4.722;2022-12-07T05:16:04;5.90;99.90
14555;DHT22;7364;50.870;4.722;2022-12-07T05:18:31;5.70;99.90
14555;DHT22;7364;50.870;4.722;2022-12-07T05:20:58;5.70;99.90
14555;DHT22;7364;50.870;4.722;2022-12-07T05:23:25;5.80;99.90
14555;DHT22;7364;50.870;4.722;2022-12-07T05:25:53;5.90;99.90
14555;DHT22;7364;50.870;4.722;2022-12-07T05:28:21;5.90;99.90
14555;DHT22;7364;50.870;4.722;2022-12-07T05:30:49;5.70;99.90
14555;DHT22;7364;50.870;4.722;2022-12-07T05:33:16;5.80;99.90
14555;DHT22;7364;50.870;4.722;2022-12-07T05:35:43;5.80;99.90
14555;DHT22;7364;50.870;4.722;2022-12-07T05:38:11;5.80;99.90
14555;DHT22;7364;50.870;4.722;2022-12-07T05:40:39;5.90;99.90
14555;DHT22;7364;50.870;4.722;2022-12-07T05:43:06;6.00;99.90
14555;DHT22;7364;50.870;4.722;2022-12-07T05:45:35;6.10;99.90
14555;DHT22;7364;50.870;4.722;2022-12-07T05:48:02;6.30;99.90
14555;DHT22;7364;50.870;4.722;2022-12-07T05:50:29;6.10;99.90
14555;DHT22;7364;50.870;4.722;2022-12-07T05:52:56;5.90;99.90
14555;DHT22;7364;50.870;4.722;2022-12-07T05:55:24;5.80;99.90
14555;DHT22;7364;50.870;4.722;2022-12-07T05:57:51;5.80;99.90
14555;DHT22;7364;50.870;4.722;2022-12-07T06:00:33;5.70;99.90
14555;DHT22;7364;50.870;4.722;2022-12-07T06:03:00;5.40;99.90
14555;DHT22;7364;50.870;4.722;2022-12-07T06:05:28;5.30;99.90
14555;DHT22;7364;50.870;4.722;2022-12-07T06:07:55;5.20;99.90
14555;DHT22;7364;50.870;4.722;2022-12-07T06:10:22;5.20;99.90
14555;DHT22;7364;50.870;4.722;2022-12-07T06:12:50;5.40;99.90
14555;DHT22;7364;50.870;4.722;2022-12-07T06:15:16;5.40;99.90
14555;DHT22;7364;50.870;4.722;2022-12-07T06:17:45;5.40;99.90
14555;DHT22;7364;50.870;4.722;2022-12-07T06:20:12;5.40;99.90
14555;DHT22;7364;50.870;4.722;2022-12-07T06:22:39;5.50;99.90
14555;DHT22;7364;50.870;4.722;2022-12-07T06:25:07;5.50;99.90
14555;DHT22;7364;50.870;4.722;2022-12-07T06:27:35;5.50;99.90
14555;DHT22;7364;50.870;4.722;2022-12-07T06:30:03;5.70;99.90
14555;DHT22;7364;50.870;4.722;2022-12-07T06:32:32;5.80;99.90
14555;DHT22;7364;50.870;4.722;2022-12-07T06:35:01;5.80;99.90
14555;DHT22;7364;50.870;4.722;2022-12-07T06:37:28;6.00;99.90
14555;DHT22;7364;50.870;4.722;2022-12-07T06:39:55;5.90;99.90
14555;DHT22;7364;50.870;4.722;2022-12-07T06:42:22;6.00;99.90
14555;DHT22;7364;50.870;4.722;2022-12-07T06:44:50;6.20;99.90
14555;DHT22;7364;50.870;4.722;2022-12-07T06:47:17;6.00;99.90
14555;DHT22;7364;50.870;4.722;2022-12-07T06:49:44;6.00;99.90
14555;DHT22;7364;50.870;4.722;2022-12-07T06:52:15;6.30;99.90
14555;DHT22;7364;50.870;4.722;2022-12-07T06:54:42;6.40;99.90
14555;DHT22;7364;50.870;4.722;2022-12-07T06:57:10;6.30;99.90
14555;DHT22;7364;50.870;4.722;2022-12-07T06:59:38;6.40;99.90
14555;DHT22;7364;50.870;4.722;2022-12-07T07:02:05;6.20;99.90
14555;DHT22;7364;50.870;4.722;2022-12-07T07:04:32;6.00;99.90
14555;DHT22;7364;50.870;4.722;2022-12-07T07:07:00;6.00;99.90
14555;DHT22;7364;50.870;4.722;2022-12-07T07:09:28;5.80;99.90
14555;DHT22;7364;50.870;4.722;2022-12-07T07:11:56;6.00;99.90
14555;DHT22;7364;50.870;4.722;2022-12-07T07:14:23;6.00;99.90
14555;DHT22;7364;50.870;4.722;2022-12-07T07:16:50;5.80;99.90
14555;DHT22;7364;50.870;4.722;2022-12-07T07:19:17;5.70;99.90
14555;DHT22;7364;50.870;4.722;2022-12-07T07:21:45;5.50;99.90
14555;DHT22;7364;50.870;4.722;2022-12-07T07:24:12;5.30;99.90
14555;DHT22;7364;50.870;4.722;2022-12-07T07:26:41;5.20;99.90
14555;DHT22;7364;50.870;4.722;2022-12-07T07:29:08;5.20;99.90
14555;DHT22;7364;50.870;4.722;2022-12-07T07:31:35;5.30;99.90
14555;DHT22;7364;50.870;4.722;2022-12-07T07:34:02;5.30;99.90
14555;DHT22;7364;50.870;4.722;2022-12-07T07:36:30;5.30;99.90
14555;DHT22;7364;50.870;4.722;2022-12-07T07:38:57;5.30;99.90
14555;DHT22;7364;50.870;4.722;2022-12-07T07:41:24;5.40;99.90
14555;DHT22;7364;50.870;4.722;2022-12-07T07:43:54;5.50;99.90
14555;DHT22;7364;50.870;4.722;2022-12-07T07:46:21;5.50;99.90
14555;DHT22;7364;50.870;4.722;2022-12-07T07:48:49;5.30;99.90
14555;DHT22;7364;50.870;4.722;2022-12-07T07:51:16;5.10;99.90
14555;DHT22;7364;50.870;4.722;2022-12-07T07:53:43;5.00;99.90
14555;DHT22;7364;50.870;4.722;2022-12-07T07:56:12;5.00;99.90
14555;DHT22;7364;50.870;4.722;2022-12-07T07:58:39;5.00;99.90
14555;DHT22;7364;50.870;4.722;2022-12-07T08:01:08;5.30;99.90
14555;DHT22;7364;50.870;4.722;2022-12-07T08:03:35;5.50;99.90
14555;DHT22;7364;50.870;4.722;2022-12-07T08:06:03;5.60;99.90
14555;DHT22;7364;50.870;4.722;2022-12-07T08:08:31;5.70;99.90
14555;DHT22;7364;50.870;4.722;2022-12-07T08:10:59;5.60;99.90
14555;DHT22;7364;50.870;4.722;2022-12-07T08:13:27;5.80;99.90
14555;DHT22;7364;50.870;4.722;2022-12-07T08:15:54;6.10;99.90
14555;DHT22;7364;50.870;4.722;2022-12-07T08:18:23;5.90;99.90
14555;DHT22;7364;50.870;4.722;2022-12-07T08:20:50;5.60;99.90
14555;DHT22;7364;50.870;4.722;2022-12-07T08:23:18;5.40;99.90
14555;DHT22;7364;50.870;4.722;2022-12-07T08:25:45;4.90;99.90
14555;DHT22;7364;50.870;4.722;2022-12-07T08:28:12;4.80;99.90
14555;DHT22;7364;50.870;4.722;2022-12-07T08:30:40;4.70;99.90
14555;DHT22;7364;50.870;4.722;2022-12-07T08:33:07;4.80;99.90
14555;DHT22;7364;50.870;4.722;2022-12-07T08:35:37;4.80;99.90
14555;DHT22;7364;50.870;4.722;2022-12-07T08:38:04;4.90;99.90
14555;DHT22;7364;50.870;4.722;2022-12-07T08:40:31;5.00;99.90
14555;DHT22;7364;50.870;4.722;2022-12-07T08:42:59;4.90;99.90
14555;DHT22;7364;50.870;4.722;2022-12-07T08:45:27;5.00;99.90
14555;DHT22;7364;50.870;4.722;2022-12-07T08:48:02;5.00;99.90
14555;DHT22;7364;50.870;4.722;2022-12-07T08:50:31;5.00;99.90
14555;DHT22;7364;50.870;4.722;2022-12-07T08:53:01;5.10;99.90
14555;DHT22;7364;50.870;4.722;2022-12-07T08:55:30;5.00;99.90
14555;DHT22;7364;50.870;4.722;2022-12-07T08:57:58;5.10;99.90
14555;DHT22;7364;50.870;4.722;2022-12-07T09:00:26;5.30;99.90
14555;DHT22;7364;50.870;4.722;2022-12-07T09:02:54;5.40;99.90
14555;DHT22;7364;50.870;4.722;2022-12-07T09:05:21;5.50;99.90
14555;DHT22;7364;50.870;4.722;2022-12-07T09:07:51;5.90;99.90
14555;DHT22;7364;50.870;4.722;2022-12-07T09:10:23;6.10;99.90
14555;DHT22;7364;50.870;4.722;2022-12-07T09:12:51;6.30;99.90
14555;DHT22;7364;50.870;4.722;2022-12-07T09:15:19;6.50;99.90
14555;DHT22;7364;50.870;4.722;2022-12-07T09:17:46;6.40;99.90
14555;DHT22;7364;50.870;4.722;2022-12-07T09:20:13;6.20;99.90
14555;DHT22;7364;50.870;4.722;2022-12-07T09:22:41;6.00;99.90
14555;DHT22;7364;50.870;4.722;2022-12-07T09:25:08;5.80;99.90
14555;DHT22;7364;50.870;4.722;2022-12-07T09:27:37;5.60;99.90
14555;DHT22;7364;50.870;4.722;2022-12-07T09:30:07;5.60;99.90
14555;DHT22;7364;50.870;4.722;2022-12-07T09:32:34;5.60;99.90
14555;DHT22;7364;50.870;4.722;2022-12-07T09:35:02;5.60;99.90
14555;DHT22;7364;50.870;4.722;2022-12-07T09:37:30;5.50;99.90
14555;DHT22;7364;50.870;4.722;2022-12-07T09:40:00;5.60;99.90
14555;DHT22;7364;50.870;4.722;2022-12-07T09:42:32;5.80;99.90
14555;DHT22;7364;50.870;4.722;2022-12-07T09:45:02;5.90;99.90
14555;DHT22;7364;50.870;4.722;2022-12-07T09:47:33;6.30;99.90
14555;DHT22;7364;50.870;4.722;2022-12-07T09:50:04;6.60;99.90
14555;DHT22;7364;50.870;4.722;2022-12-07T09:52:32;6.80;99.90
14555;DHT22;7364;50.870;4.722;2022-12-07T09:54:59;7.00;99.90
14555;DHT22;7364;50.870;4.722;2022-12-07T09:57:30;7.10;99.90
14555;DHT22;7364;50.870;4.722;2022-12-07T10:00:06;7.40;99.90
14555;DHT22;7364;50.870;4.722;2022-12-07T10:02:36;7.30;99.90
14555;DHT22;7364;50.870;4.722;2022-12-07T10:05:06;7.40;99.90
14555;DHT22;7364;50.870;4.722;2022-12-07T10:07:33;7.50;99.90
14555;DHT22;7364;50.870;4.722;2022-12-07T10:10:03;7.60;99.90
14555;DHT22;7364;50.870;4.722;2022-12-07T10:12:56;7.60;99.90
14555;DHT22;7364;50.870;4.722;2022-12-07T10:18:34;7.30;99.90
14555;DHT22;7364;50.870;4.722;2022-12-07T10:21:12;7.20;99.90
14555;DHT22;7364;50.870;4.722;2022-12-07T10:23:42;7.10;99.90
14555;DHT22;7364;50.870;4.722;2022-12-07T10:26:31;7.20;99.90
14555;DHT22;7364;50.870;4.722;2022-12-07T10:29:01;7.60;99.90
14555;DHT22;7364;50.870;4.722;2022-12-07T10:31:28;7.60;99.90
14555;DHT22;7364;50.870;4.722;2022-12-07T10:33:58;7.50;99.90
14555;DHT22;7364;50.870;4.722;2022-12-07T10:36:35;7.40;99.90
14555;DHT22;7364;50.870;4.722;2022-12-07T10:39:11;7.30;99.90
14555;DHT22;7364;50.870;4.722;2022-12-07T10:41:53;7.20;99.90
14555;DHT22;7364;50.870;4.722;2022-12-07T10:44:23;7.30;99.90
14555;DHT22;7364;50.870;4.722;2022-12-07T10:47:01;7.10;99.90
14555;DHT22;7364;50.870;4.722;2022-12-07T10:52:59;7.10;99.90
14555;DHT22;7364;50.870;4.722;2022-12-07T10:55:34;7.30;99.90
14555;DHT22;7364;50.870;4.722;2022-12-07T10:58:28;7.30;99.90
14555;DHT22;7364;50.870;4.722;2022-12-07T11:01:05;7.30;99.90
14555;DHT22;7364;50.870;4.722;2022-12-07T11:03:54;7.30;99.90
14555;DHT22;7364;50.870;4.722;2022-12-07T11:06:28;7.10;99.90
14555;DHT22;7364;50.870;4.722;2022-12-07T11:09:08;7.10;99.90
14555;DHT22;7364;50.870;4.722;2022-12-07T11:11:50;7.10;99.90
14555;DHT22;7364;50.870;4.722;2022-12-07T11:14:26;7.00;99.90
14555;DHT22;7364;50.870;4.722;2022-12-07T11:16:58;7.00;99.90
14555;DHT22;7364;50.870;4.722;2022-12-07T11:19:50;7.10;99.90
14555;DHT22;7364;50.870;4.722;2022-12-07T11:22:28;7.10;99.90
14555;DHT22;7364;50.870;4.722;2022-12-07T11:25:16;7.10;99.90
14555;DHT22;7364;50.870;4.722;2022-12-07T11:27:55;7.20;99.90
14555;DHT22;7364;50.870;4.722;2022-12-07T11:30:36;7.40;99.90
14555;DHT22;7364;50.870;4.722;2022-12-07T11:33:19;7.30;99.90
14555;DHT22;7364;50.870;4.722;2022-12-07T11:35:58;7.30;99.90
14555;DHT22;7364;50.870;4.722;2022-12-07T11:38:36;7.40;99.90
14555;DHT22;7364;50.870;4.722;2022-12-07T11:41:08;7.60;99.90
14555;DHT22;7364;50.870;4.722;2022-12-07T11:43:53;7.90;99.90
14555;DHT22;7364;50.870;4.722;2022-12-07T11:46:24;8.00;99.90
14555;DHT22;7364;50.870;4.722;2022-12-07T11:48:58;7.80;99.90
14555;DHT22;7364;50.870;4.722;2022-12-07T11:51:28;7.70;99.90
14555;DHT22;7364;50.870;4.722;2022-12-07T11:54:01;7.50;99.90
14555;DHT22;7364;50.870;4.722;2022-12-07T11:56:30;7.60;99.90
14555;DHT22;7364;50.870;4.722;2022-12-07T11:59:07;7.30;99.90
14555;DHT22;7364;50.870;4.722;2022-12-07T12:01:44;7.30;99.90
14555;DHT22;7364;50.870;4.722;2022-12-07T12:04:27;7.30;99.90
14555;DHT22;7364;50.870;4.722;2022-12-07T12:06:56;7.50;99.90
14555;DHT22;7364;50.870;4.722;2022-12-07T12:09:29;7.80;99.90
14555;DHT22;7364;50.870;4.722;2022-12-07T12:12:21;7.90;99.90
14555;DHT22;7364;50.870;4.722;2022-12-07T12:15:02;7.80;99.90
14555;DHT22;7364;50.870;4.722;2022-12-07T12:17:45;7.90;99.90
14555;DHT22;7364;50.870;4.722;2022-12-07T12:20:21;7.90;99.90
14555;DHT22;7364;50.870;4.722;2022-12-07T12:22:54;8.00;99.90
14555;DHT22;7364;50.870;4.722;2022-12-07T12:25:26;8.10;99.90
14555;DHT22;7364;50.870;4.722;2022-12-07T12:27:58;7.90;99.90
14555;DHT22;7364;50.870;4.722;2022-12-07T12:30:32;7.90;99.90
14555;DHT22;7364;50.870;4.722;2022-12-07T12:33:05;7.80;99.90
14555;DHT22;7364;50.870;4.722;2022-12-07T12:35:39;7.80;99.90
14555;DHT22;7364;50.870;4.722;2022-12-07T12:38:27;7.70;99.90
14555;DHT22;7364;50.870;4.722;2022-12-07T12:40:56;7.70;99.90
14555;DHT22;7364;50.870;4.722;2022-12-07T12:43:44;7.70;99.90
14555;DHT22;7364;50.870;4.722;2022-12-07T12:46:37;7.60;99.90
14555;DHT22;7364;50.870;4.722;2022-12-07T13:01:41;7.50;99.90
14555;DHT22;7364;50.870;4.722;2022-12-07T13:07:30;7.50;99.90
14555;DHT22;7364;50.870;4.722;2022-12-07T13:10:02;7.40;99.90
14555;DHT22;7364;50.870;4.722;2022-12-07T13:12:30;7.30;99.90
14555;DHT22;7364;50.870;4.722;2022-12-07T13:14:58;7.40;99.90
14555;DHT22;7364;50.870;4.722;2022-12-07T13:20:50;7.40;99.90
14555;DHT22;7364;50.870;4.722;2022-12-07T13:23:37;7.50;99.90
14555;DHT22;7364;50.870;4.722;2022-12-07T13:26:13;7.60;99.90
14555;DHT22;7364;50.870;4.722;2022-12-07T13:28:42;7.80;99.90
14555;DHT22;7364;50.870;4.722;2022-12-07T13:31:22;7.90;99.90
14555;DHT22;7364;50.870;4.722;2022-12-07T13:33:51;7.90;99.90
14555;DHT22;7364;50.870;4.722;2022-12-07T13:36:22;8.00;99.90
14555;DHT22;7364;50.870;4.722;2022-12-07T13:38:52;8.20;99.90
14555;DHT22;7364;50.870;4.722;2022-12-07T13:41:21;8.40;99.90
14555;DHT22;7364;50.870;4.722;2022-12-07T13:43:59;8.30;99.90
14555;DHT22;7364;50.870;4.722;2022-12-07T13:46:37;8.10;99.90
14555;DHT22;7364;50.870;4.722;2022-12-07T13:49:20;7.90;99.90
14555;DHT22;7364;50.870;4.722;2022-12-07T13:51:50;7.80;99.90
14555;DHT22;7364;50.870;4.722;2022-12-07T13:54:19;7.70;99.90
14555;DHT22;7364;50.870;4.722;2022-12-07T13:56:49;7.60;99.90
14555;DHT22;7364;50.870;4.722;2022-12-07T13:59:20;7.60;99.90
14555;DHT22;7364;50.870;4.722;2022-12-07T14:01:49;7.50;99.90
14555;DHT22;7364;50.870;4.722;2022-12-07T14:04:29;7.50;99.90
14555;DHT22;7364;50.870;4.722;2022-12-07T14:06:59;7.50;99.90
14555;DHT22;7364;50.870;4.722;2022-12-07T14:09:28;7.60;99.90
14555;DHT22;7364;50.870;4.722;2022-12-07T14:11:57;7.60;99.90
14555;DHT22;7364;50.870;4.722;2022-12-07T14:14:26;7.60;99.90
14555;DHT22;7364;50.870;4.722;2022-12-07T14:17:00;7.60;99.90
14555;DHT22;7364;50.870;4.722;2022-12-07T14:19:45;7.60;99.90
14555;DHT22;7364;50.870;4.722;2022-12-07T14:22:30;7.60;99.90
14555;DHT22;7364;50.870;4.722;2022-12-07T14:25:17;7.50;99.90
14555;DHT22;7364;50.870;4.722;2022-12-07T14:27:50;7.50;99.90
14555;DHT22;7364;50.870;4.722;2022-12-07T14:30:19;7.50;99.90
14555;DHT22;7364;50.870;4.722;2022-12-07T14:32:48;7.40;99.90
14555;DHT22;7364;50.870;4.722;2022-12-07T14:35:18;7.40;99.90
14555;DHT22;7364;50.870;4.722;2022-12-07T14:37:47;7.40;99.90
14555;DHT22;7364;50.870;4.722;2022-12-07T14:40:18;7.40;99.90
14555;DHT22;7364;50.870;4.722;2022-12-07T14:42:47;7.30;99.90
14555;DHT22;7364;50.870;4.722;2022-12-07T14:45:17;7.30;99.90
14555;DHT22;7364;50.870;4.722;2022-12-07T14:47:45;7.30;99.90
14555;DHT22;7364;50.870;4.722;2022-12-07T14:50:14;7.20;99.90
14555;DHT22;7364;50.870;4.722;2022-12-07T14:52:43;7.10;99.90
14555;DHT22;7364;50.870;4.722;2022-12-07T14:55:14;7.10;99.90
14555;DHT22;7364;50.870;4.722;2022-12-07T14:57:44;7.10;99.90
14555;DHT22;7364;50.870;4.722;2022-12-07T15:00:15;7.10;99.90
14555;DHT22;7364;50.870;4.722;2022-12-07T15:02:43;7.00;99.90
14555;DHT22;7364;50.870;4.722;2022-12-07T15:05:10;7.00;99.90
14555;DHT22;7364;50.870;4.722;2022-12-07T15:07:39;6.90;99.90
14555;DHT22;7364;50.870;4.722;2022-12-07T15:10:09;6.80;99.90
14555;DHT22;7364;50.870;4.722;2022-12-07T15:12:40;6.80;99.90
14555;DHT22;7364;50.870;4.722;2022-12-07T15:15:09;6.80;99.90
14555;DHT22;7364;50.870;4.722;2022-12-07T15:17:36;6.70;99.90
14555;DHT22;7364;50.870;4.722;2022-12-07T15:20:05;6.80;99.90
14555;DHT22;7364;50.870;4.722;2022-12-07T15:22:33;6.80;99.90
14555;DHT22;7364;50.870;4.722;2022-12-07T15:25:00;6.90;99.90
14555;DHT22;7364;50.870;4.722;2022-12-07T15:27:27;6.90;99.90
14555;DHT22;7364;50.870;4.722;2022-12-07T15:29:54;6.90;99.90
14555;DHT22;7364;50.870;4.722;2022-12-07T15:32:24;6.90;99.90
14555;DHT22;7364;50.870;4.722;2022-12-07T15:34:51;6.70;99.90
14555;DHT22;7364;50.870;4.722;2022-12-07T15:37:18;6.70;99.90
14555;DHT22;7364;50.870;4.722;2022-12-07T15:39:45;6.50;99.90
14555;DHT22;7364;50.870;4.722;2022-12-07T15:42:13;6.60;99.90
14555;DHT22;7364;50.870;4.722;2022-12-07T15:44:40;6.60;99.90
14555;DHT22;7364;50.870;4.722;2022-12-07T15:47:26;6.70;99.90
14555;DHT22;7364;50.870;4.722;2022-12-07T15:49:53;6.50;99.90
14555;DHT22;7364;50.870;4.722;2022-12-07T15:52:21;6.60;99.90
14555;DHT22;7364;50.870;4.722;2022-12-07T15:54:49;6.60;99.90
14555;DHT22;7364;50.870;4.722;2022-12-07T15:57:16;6.60;99.90
14555;DHT22;7364;50.870;4.722;2022-12-07T15:59:44;6.50;99.90
14555;DHT22;7364;50.870;4.722;2022-12-07T16:02:12;6.60;99.90
14555;DHT22;7364;50.870;4.722;2022-12-07T16:04:41;6.70;99.90
14555;DHT22;7364;50.870;4.722;2022-12-07T16:07:08;6.80;99.90
14555;DHT22;7364;50.870;4.722;2022-12-07T16:09:37;6.80;99.90
14555;DHT22;7364;50.870;4.722;2022-12-07T16:12:04;6.70;99.90
14555;DHT22;7364;50.870;4.722;2022-12-07T16:14:32;6.80;99.90
14555;DHT22;7364;50.870;4.722;2022-12-07T16:16:59;6.90;99.90
14555;DHT22;7364;50.870;4.722;2022-12-07T16:19:27;7.10;99.90
14555;DHT22;7364;50.870;4.722;2022-12-07T16:22:32;7.20;99.90
14555;DHT22;7364;50.870;4.722;2022-12-07T16:25:42;7.30;99.90
14555;DHT22;7364;50.870;4.722;2022-12-07T16:28:23;7.30;99.90
14555;DHT22;7364;50.870;4.722;2022-12-07T16:31:00;7.10;99.90
14555;DHT22;7364;50.870;4.722;2022-12-07T16:33:27;7.10;99.90
14555;DHT22;7364;50.870;4.722;2022-12-07T16:35:54;7.20;99.90
14555;DHT22;7364;50.870;4.722;2022-12-07T16:38:23;7.00;99.90
14555;DHT22;7364;50.870;4.722;2022-12-07T16:40:50;6.90;99.90
14555;DHT22;7364;50.870;4.722;2022-12-07T16:43:18;6.80;99.90
14555;DHT22;7364;50.870;4.722;2022-12-07T16:45:46;6.80;99.90
14555;DHT22;7364;50.870;4.722;2022-12-07T16:48:13;6.90;99.90
14555;DHT22;7364;50.870;4.722;2022-12-07T16:50:41;6.70;99.90
14555;DHT22;7364;50.870;4.722;2022-12-07T16:53:09;6.60;99.90